sensor_id;sensor_type;location;lat;lon;timestamp;P1;durP1;ratioP1;P2;durP2;ratioP2
21593;SDS011;10959;51.328;7.322;2022-08-19T00:01:11;9.57;;;8.77;;
21593;SDS011;10959;51.328;7.322;2022-08-19T00:03:39;10.60;;;9.70;;
21593;SDS011;10959;51.328;7.322;2022-08-19T00:06:06;9.67;;;8.87;;
21593;SDS011;10959;51.328;7.322;2022-08-19T00:08:32;10.07;;;9.07;;
21593;SDS011;10959;51.328;7.322;2022-08-19T00:10:59;10.20;;;9.30;;
21593;SDS011;10959;51.328;7.322;2022-08-19T00:13:25;11.27;;;10.27;;
21593;SDS011;10959;51.328;7.322;2022-08-19T00:15:53;9.77;;;8.97;;
21593;SDS011;10959;51.328;7.322;2022-08-19T00:18:20;9.80;;;9.00;;
21593;SDS011;10959;51.328;7.322;2022-08-19T00:20:47;9.13;;;8.33;;
21593;SDS011;10959;51.328;7.322;2022-08-19T00:23:14;10.53;;;9.63;;
21593;SDS011;10959;51.328;7.322;2022-08-19T00:25:41;10.63;;;9.63;;
21593;SDS011;10959;51.328;7.322;2022-08-19T00:28:07;10.50;;;9.60;;
21593;SDS011;10959;51.328;7.322;2022-08-19T00:30:34;11.33;;;10.27;;
21593;SDS011;10959;51.328;7.322;2022-08-19T00:33:00;10.17;;;9.17;;
21593;SDS011;10959;51.328;7.322;2022-08-19T00:35:26;10.93;;;9.93;;
21593;SDS011;10959;51.328;7.322;2022-08-19T00:37:54;10.77;;;9.77;;
21593;SDS011;10959;51.328;7.322;2022-08-19T00:40:21;11.37;;;10.47;;
21593;SDS011;10959;51.328;7.322;2022-08-19T00:42:48;10.83;;;9.83;;
21593;SDS011;10959;51.328;7.322;2022-08-19T00:45:19;9.43;;;8.63;;
21593;SDS011;10959;51.328;7.322;2022-08-19T00:47:48;10.50;;;9.50;;
21593;SDS011;10959;51.328;7.322;2022-08-19T00:50:15;9.00;;;8.03;;
21593;SDS011;10959;51.328;7.322;2022-08-19T00:52:46;9.37;;;8.47;;
21593;SDS011;10959;51.328;7.322;2022-08-19T00:55:19;10.10;;;9.07;;
21593;SDS011;10959;51.328;7.322;2022-08-19T00:57:51;9.80;;;9.00;;
21593;SDS011;10959;51.328;7.322;2022-08-19T01:00:21;10.03;;;9.07;;
21593;SDS011;10959;51.328;7.322;2022-08-19T01:02:50;9.77;;;8.97;;
21593;SDS011;10959;51.328;7.322;2022-08-19T01:05:19;10.83;;;9.83;;
21593;SDS011;10959;51.328;7.322;2022-08-19T01:07:49;11.23;;;10.13;;
21593;SDS011;10959;51.328;7.322;2022-08-19T01:10:19;9.83;;;9.00;;
21593;SDS011;10959;51.328;7.322;2022-08-19T01:12:48;10.70;;;9.73;;
21593;SDS011;10959;51.328;7.322;2022-08-19T01:15:16;10.90;;;9.90;;
21593;SDS011;10959;51.328;7.322;2022-08-19T01:17:46;11.20;;;10.20;;
21593;SDS011;10959;51.328;7.322;2022-08-19T01:20:15;10.40;;;9.53;;
21593;SDS011;10959;51.328;7.322;2022-08-19T01:22:47;10.27;;;9.47;;
21593;SDS011;10959;51.328;7.322;2022-08-19T01:25:16;10.40;;;9.40;;
21593;SDS011;10959;51.328;7.322;2022-08-19T01:27:46;10.97;;;9.87;;
21593;SDS011;10959;51.328;7.322;2022-08-19T01:30:17;10.57;;;9.67;;
21593;SDS011;10959;51.328;7.322;2022-08-19T01:32:47;10.00;;;9.20;;
21593;SDS011;10959;51.328;7.322;2022-08-19T01:35:14;10.37;;;9.37;;
21593;SDS011;10959;51.328;7.322;2022-08-19T01:37:44;10.60;;;9.50;;
21593;SDS011;10959;51.328;7.322;2022-08-19T01:40:13;11.13;;;10.13;;
21593;SDS011;10959;51.328;7.322;2022-08-19T01:42:40;10.23;;;9.33;;
21593;SDS011;10959;51.328;7.322;2022-08-19T01:45:07;12.33;;;11.13;;
21593;SDS011;10959;51.328;7.322;2022-08-19T01:47:35;13.27;;;11.97;;
21593;SDS011;10959;51.328;7.322;2022-08-19T01:50:03;13.80;;;12.57;;
21593;SDS011;10959;51.328;7.322;2022-08-19T01:52:30;14.83;;;13.53;;
21593;SDS011;10959;51.328;7.322;2022-08-19T01:54:58;14.00;;;12.67;;
21593;SDS011;10959;51.328;7.322;2022-08-19T01:57:25;14.73;;;13.37;;
21593;SDS011;10959;51.328;7.322;2022-08-19T01:59:52;15.50;;;13.90;;
21593;SDS011;10959;51.328;7.322;2022-08-19T02:02:19;13.87;;;12.63;;
21593;SDS011;10959;51.328;7.322;2022-08-19T02:04:45;14.93;;;13.63;;
21593;SDS011;10959;51.328;7.322;2022-08-19T02:07:12;13.63;;;12.43;;
21593;SDS011;10959;51.328;7.322;2022-08-19T02:09:39;13.40;;;12.20;;
21593;SDS011;10959;51.328;7.322;2022-08-19T02:12:07;13.67;;;12.37;;
21593;SDS011;10959;51.328;7.322;2022-08-19T02:14:34;13.67;;;12.43;;
21593;SDS011;10959;51.328;7.322;2022-08-19T02:17:01;13.17;;;11.90;;
21593;SDS011;10959;51.328;7.322;2022-08-19T02:19:28;13.40;;;12.23;;
21593;SDS011;10959;51.328;7.322;2022-08-19T02:21:57;13.27;;;11.87;;
21593;SDS011;10959;51.328;7.322;2022-08-19T02:24:24;11.67;;;10.63;;
21593;SDS011;10959;51.328;7.322;2022-08-19T02:26:51;10.93;;;9.93;;
21593;SDS011;10959;51.328;7.322;2022-08-19T02:29:19;10.93;;;10.03;;
21593;SDS011;10959;51.328;7.322;2022-08-19T02:31:46;11.23;;;9.57;;
21593;SDS011;10959;51.328;7.322;2022-08-19T02:34:13;10.70;;;9.80;;
21593;SDS011;10959;51.328;7.322;2022-08-19T02:36:39;12.73;;;11.53;;
21593;SDS011;10959;51.328;7.322;2022-08-19T02:39:06;12.83;;;11.73;;
21593;SDS011;10959;51.328;7.322;2022-08-19T02:41:32;12.27;;;11.07;;
21593;SDS011;10959;51.328;7.322;2022-08-19T02:44:00;12.07;;;10.93;;
21593;SDS011;10959;51.328;7.322;2022-08-19T02:46:31;12.43;;;11.33;;
21593;SDS011;10959;51.328;7.322;2022-08-19T02:48:59;12.07;;;10.97;;
21593;SDS011;10959;51.328;7.322;2022-08-19T02:51:29;12.10;;;11.00;;
21593;SDS011;10959;51.328;7.322;2022-08-19T02:53:57;13.50;;;12.30;;
21593;SDS011;10959;51.328;7.322;2022-08-19T02:56:24;12.33;;;11.13;;
21593;SDS011;10959;51.328;7.322;2022-08-19T02:58:52;12.60;;;11.30;;
21593;SDS011;10959;51.328;7.322;2022-08-19T03:01:20;12.33;;;11.07;;
21593;SDS011;10959;51.328;7.322;2022-08-19T03:03:50;13.87;;;12.57;;
21593;SDS011;10959;51.328;7.322;2022-08-19T03:06:17;13.07;;;11.93;;
21593;SDS011;10959;51.328;7.322;2022-08-19T03:08:45;14.37;;;13.07;;
21593;SDS011;10959;51.328;7.322;2022-08-19T03:11:14;14.30;;;12.90;;
21593;SDS011;10959;51.328;7.322;2022-08-19T03:13:42;14.73;;;13.43;;
21593;SDS011;10959;51.328;7.322;2022-08-19T03:16:09;17.57;;;15.87;;
21593;SDS011;10959;51.328;7.322;2022-08-19T03:18:36;17.77;;;15.63;;
21593;SDS011;10959;51.328;7.322;2022-08-19T03:21:05;17.07;;;15.47;;
21593;SDS011;10959;51.328;7.322;2022-08-19T03:23:32;17.17;;;15.23;;
21593;SDS011;10959;51.328;7.322;2022-08-19T03:25:59;16.93;;;15.20;;
21593;SDS011;10959;51.328;7.322;2022-08-19T03:28:29;14.90;;;13.50;;
21593;SDS011;10959;51.328;7.322;2022-08-19T03:30:57;14.67;;;13.33;;
21593;SDS011;10959;51.328;7.322;2022-08-19T03:33:26;15.87;;;14.27;;
21593;SDS011;10959;51.328;7.322;2022-08-19T03:36:05;16.80;;;15.20;;
21593;SDS011;10959;51.328;7.322;2022-08-19T03:38:34;17.33;;;15.63;;
21593;SDS011;10959;51.328;7.322;2022-08-19T03:41:02;15.83;;;14.43;;
21593;SDS011;10959;51.328;7.322;2022-08-19T03:43:31;15.90;;;14.30;;
21593;SDS011;10959;51.328;7.322;2022-08-19T03:45:59;15.47;;;14.03;;
21593;SDS011;10959;51.328;7.322;2022-08-19T03:48:27;17.53;;;15.90;;
21593;SDS011;10959;51.328;7.322;2022-08-19T03:50:55;17.00;;;15.27;;
21593;SDS011;10959;51.328;7.322;2022-08-19T03:53:24;16.40;;;14.93;;
21593;SDS011;10959;51.328;7.322;2022-08-19T03:55:52;16.30;;;14.70;;
21593;SDS011;10959;51.328;7.322;2022-08-19T03:58:18;17.40;;;15.80;;
21593;SDS011;10959;51.328;7.322;2022-08-19T04:00:45;19.33;;;16.37;;
21593;SDS011;10959;51.328;7.322;2022-08-19T04:03:11;17.60;;;15.90;;
21593;SDS011;10959;51.328;7.322;2022-08-19T04:05:38;18.07;;;16.37;;
21593;SDS011;10959;51.328;7.322;2022-08-19T04:08:04;17.30;;;15.70;;
21593;SDS011;10959;51.328;7.322;2022-08-19T04:10:34;17.53;;;15.73;;
21593;SDS011;10959;51.328;7.322;2022-08-19T04:13:01;18.80;;;16.83;;
21593;SDS011;10959;51.328;7.322;2022-08-19T04:15:29;16.60;;;14.97;;
21593;SDS011;10959;51.328;7.322;2022-08-19T04:17:58;17.47;;;15.77;;
21593;SDS011;10959;51.328;7.322;2022-08-19T04:20:25;18.77;;;17.00;;
21593;SDS011;10959;51.328;7.322;2022-08-19T04:22:51;19.60;;;17.80;;
21593;SDS011;10959;51.328;7.322;2022-08-19T04:25:18;19.93;;;18.00;;
21593;SDS011;10959;51.328;7.322;2022-08-19T04:27:46;19.13;;;17.30;;
21593;SDS011;10959;51.328;7.322;2022-08-19T04:30:13;19.97;;;18.07;;
21593;SDS011;10959;51.328;7.322;2022-08-19T04:32:40;19.10;;;17.23;;
21593;SDS011;10959;51.328;7.322;2022-08-19T04:35:08;18.17;;;16.40;;
21593;SDS011;10959;51.328;7.322;2022-08-19T04:37:35;18.17;;;16.37;;
21593;SDS011;10959;51.328;7.322;2022-08-19T04:40:03;18.13;;;16.43;;
21593;SDS011;10959;51.328;7.322;2022-08-19T04:42:50;18.43;;;16.63;;
21593;SDS011;10959;51.328;7.322;2022-08-19T04:45:16;21.13;;;19.03;;
21593;SDS011;10959;51.328;7.322;2022-08-19T04:47:43;19.43;;;17.40;;
21593;SDS011;10959;51.328;7.322;2022-08-19T04:50:10;18.00;;;16.40;;
21593;SDS011;10959;51.328;7.322;2022-08-19T04:52:37;18.93;;;17.10;;
21593;SDS011;10959;51.328;7.322;2022-08-19T04:55:08;18.10;;;16.30;;
21593;SDS011;10959;51.328;7.322;2022-08-19T04:57:35;18.00;;;16.30;;
21593;SDS011;10959;51.328;7.322;2022-08-19T05:00:07;18.60;;;16.80;;
21593;SDS011;10959;51.328;7.322;2022-08-19T05:02:34;17.77;;;15.87;;
21593;SDS011;10959;51.328;7.322;2022-08-19T05:05:02;18.77;;;16.87;;
21593;SDS011;10959;51.328;7.322;2022-08-19T05:07:31;18.20;;;16.43;;
21593;SDS011;10959;51.328;7.322;2022-08-19T05:09:58;16.63;;;15.03;;
21593;SDS011;10959;51.328;7.322;2022-08-19T05:12:25;19.97;;;17.03;;
21593;SDS011;10959;51.328;7.322;2022-08-19T05:14:51;16.67;;;15.07;;
21593;SDS011;10959;51.328;7.322;2022-08-19T05:17:20;18.90;;;17.00;;
21593;SDS011;10959;51.328;7.322;2022-08-19T05:19:47;15.97;;;14.40;;
21593;SDS011;10959;51.328;7.322;2022-08-19T05:22:31;17.60;;;15.80;;
21593;SDS011;10959;51.328;7.322;2022-08-19T05:25:01;17.90;;;16.17;;
21593;SDS011;10959;51.328;7.322;2022-08-19T05:27:29;16.80;;;15.10;;
21593;SDS011;10959;51.328;7.322;2022-08-19T05:29:56;17.17;;;15.47;;
21593;SDS011;10959;51.328;7.322;2022-08-19T05:32:24;16.77;;;15.07;;
21593;SDS011;10959;51.328;7.322;2022-08-19T05:34:51;17.13;;;15.53;;
21593;SDS011;10959;51.328;7.322;2022-08-19T05:37:17;17.47;;;15.87;;
21593;SDS011;10959;51.328;7.322;2022-08-19T05:39:44;17.07;;;15.30;;
21593;SDS011;10959;51.328;7.322;2022-08-19T05:42:11;16.60;;;15.07;;
21593;SDS011;10959;51.328;7.322;2022-08-19T05:44:39;18.83;;;16.97;;
21593;SDS011;10959;51.328;7.322;2022-08-19T05:47:09;18.23;;;16.33;;
21593;SDS011;10959;51.328;7.322;2022-08-19T05:49:38;16.83;;;15.33;;
21593;SDS011;10959;51.328;7.322;2022-08-19T05:52:05;18.70;;;16.80;;
21593;SDS011;10959;51.328;7.322;2022-08-19T05:54:36;16.77;;;14.93;;
21593;SDS011;10959;51.328;7.322;2022-08-19T05:57:05;17.40;;;15.77;;
21593;SDS011;10959;51.328;7.322;2022-08-19T05:59:31;18.13;;;16.33;;
21593;SDS011;10959;51.328;7.322;2022-08-19T06:02:00;17.80;;;15.70;;
21593;SDS011;10959;51.328;7.322;2022-08-19T06:04:27;16.23;;;14.60;;
21593;SDS011;10959;51.328;7.322;2022-08-19T06:06:55;15.27;;;13.67;;
21593;SDS011;10959;51.328;7.322;2022-08-19T06:09:23;16.13;;;14.63;;
21593;SDS011;10959;51.328;7.322;2022-08-19T06:11:50;18.27;;;14.53;;
21593;SDS011;10959;51.328;7.322;2022-08-19T06:14:20;16.60;;;15.00;;
21593;SDS011;10959;51.328;7.322;2022-08-19T06:16:48;16.60;;;14.97;;
21593;SDS011;10959;51.328;7.322;2022-08-19T06:19:17;16.87;;;15.17;;
21593;SDS011;10959;51.328;7.322;2022-08-19T06:21:47;19.67;;;17.67;;
21593;SDS011;10959;51.328;7.322;2022-08-19T06:24:17;18.83;;;17.03;;
21593;SDS011;10959;51.328;7.322;2022-08-19T06:26:47;19.50;;;16.87;;
21593;SDS011;10959;51.328;7.322;2022-08-19T06:29:16;19.10;;;17.17;;
21593;SDS011;10959;51.328;7.322;2022-08-19T06:31:44;18.27;;;16.47;;
21593;SDS011;10959;51.328;7.322;2022-08-19T06:34:14;16.87;;;15.07;;
21593;SDS011;10959;51.328;7.322;2022-08-19T06:36:42;16.37;;;14.77;;
21593;SDS011;10959;51.328;7.322;2022-08-19T06:39:12;17.40;;;15.80;;
21593;SDS011;10959;51.328;7.322;2022-08-19T06:41:42;17.77;;;15.37;;
21593;SDS011;10959;51.328;7.322;2022-08-19T06:44:09;18.20;;;16.40;;
21593;SDS011;10959;51.328;7.322;2022-08-19T06:46:36;19.93;;;18.00;;
21593;SDS011;10959;51.328;7.322;2022-08-19T06:49:04;20.73;;;18.53;;
21593;SDS011;10959;51.328;7.322;2022-08-19T06:51:35;21.47;;;19.40;;
21593;SDS011;10959;51.328;7.322;2022-08-19T06:54:02;21.67;;;19.37;;
21593;SDS011;10959;51.328;7.322;2022-08-19T06:56:30;21.23;;;19.03;;
21593;SDS011;10959;51.328;7.322;2022-08-19T06:59:00;18.33;;;16.37;;
21593;SDS011;10959;51.328;7.322;2022-08-19T07:01:27;21.03;;;18.27;;
21593;SDS011;10959;51.328;7.322;2022-08-19T07:03:53;17.97;;;16.10;;
21593;SDS011;10959;51.328;7.322;2022-08-19T07:06:20;20.23;;;18.13;;
21593;SDS011;10959;51.328;7.322;2022-08-19T07:08:47;19.53;;;17.57;;
21593;SDS011;10959;51.328;7.322;2022-08-19T07:11:14;19.40;;;17.27;;
21593;SDS011;10959;51.328;7.322;2022-08-19T07:13:44;17.77;;;15.97;;
21593;SDS011;10959;51.328;7.322;2022-08-19T07:16:14;16.97;;;15.30;;
21593;SDS011;10959;51.328;7.322;2022-08-19T07:18:41;18.07;;;16.37;;
21593;SDS011;10959;51.328;7.322;2022-08-19T07:21:10;19.13;;;17.23;;
21593;SDS011;10959;51.328;7.322;2022-08-19T07:23:38;19.33;;;17.30;;
21593;SDS011;10959;51.328;7.322;2022-08-19T07:26:05;20.10;;;17.53;;
21593;SDS011;10959;51.328;7.322;2022-08-19T07:28:32;19.87;;;17.80;;
21593;SDS011;10959;51.328;7.322;2022-08-19T07:30:59;23.60;;;18.57;;
21593;SDS011;10959;51.328;7.322;2022-08-19T07:33:30;18.80;;;16.90;;
21593;SDS011;10959;51.328;7.322;2022-08-19T07:35:57;15.52;;;13.90;;
21593;SDS011;10959;51.328;7.322;2022-08-19T07:38:24;18.08;;;16.10;;
21593;SDS011;10959;51.328;7.322;2022-08-19T07:40:51;19.20;;;16.58;;
21593;SDS011;10959;51.328;7.322;2022-08-19T07:43:18;15.38;;;13.88;;
21593;SDS011;10959;51.328;7.322;2022-08-19T07:45:48;17.20;;;15.20;;
21593;SDS011;10959;51.328;7.322;2022-08-19T07:48:14;14.85;;;13.43;;
21593;SDS011;10959;51.328;7.322;2022-08-19T07:50:42;16.65;;;14.73;;
21593;SDS011;10959;51.328;7.322;2022-08-19T07:53:09;15.75;;;14.05;;
21593;SDS011;10959;51.328;7.322;2022-08-19T07:55:36;15.68;;;14.25;;
21593;SDS011;10959;51.328;7.322;2022-08-19T07:58:03;14.60;;;13.20;;
21593;SDS011;10959;51.328;7.322;2022-08-19T08:00:29;13.95;;;12.52;;
21593;SDS011;10959;51.328;7.322;2022-08-19T08:02:56;15.75;;;14.05;;
21593;SDS011;10959;51.328;7.322;2022-08-19T08:05:23;16.02;;;14.35;;
21593;SDS011;10959;51.328;7.322;2022-08-19T08:08:09;14.45;;;13.00;;
21593;SDS011;10959;51.328;7.322;2022-08-19T08:11:01;15.05;;;13.18;;
21593;SDS011;10959;51.328;7.322;2022-08-19T08:13:29;15.10;;;13.70;;
21593;SDS011;10959;51.328;7.322;2022-08-19T08:15:55;16.42;;;14.90;;
21593;SDS011;10959;51.328;7.322;2022-08-19T08:18:22;15.50;;;14.02;;
21593;SDS011;10959;51.328;7.322;2022-08-19T08:20:49;15.95;;;14.38;;
21593;SDS011;10959;51.328;7.322;2022-08-19T08:23:17;14.38;;;12.98;;
21593;SDS011;10959;51.328;7.322;2022-08-19T08:25:50;13.93;;;12.52;;
21593;SDS011;10959;51.328;7.322;2022-08-19T08:28:18;14.75;;;13.35;;
21593;SDS011;10959;51.328;7.322;2022-08-19T08:30:45;14.20;;;12.80;;
21593;SDS011;10959;51.328;7.322;2022-08-19T08:33:14;14.35;;;12.95;;
21593;SDS011;10959;51.328;7.322;2022-08-19T08:35:43;14.18;;;12.75;;
21593;SDS011;10959;51.328;7.322;2022-08-19T08:38:10;13.05;;;11.85;;
21593;SDS011;10959;51.328;7.322;2022-08-19T08:40:42;14.20;;;11.52;;
21593;SDS011;10959;51.328;7.322;2022-08-19T08:43:17;15.45;;;14.02;;
21593;SDS011;10959;51.328;7.322;2022-08-19T08:45:49;14.27;;;12.85;;
21593;SDS011;10959;51.328;7.322;2022-08-19T08:48:21;16.95;;;15.35;;
21593;SDS011;10959;51.328;7.322;2022-08-19T08:50:51;15.60;;;14.00;;
21593;SDS011;10959;51.328;7.322;2022-08-19T08:53:20;13.88;;;12.57;;
21593;SDS011;10959;51.328;7.322;2022-08-19T08:55:49;19.67;;;15.77;;
21593;SDS011;10959;51.328;7.322;2022-08-19T08:58:17;19.95;;;18.08;;
21593;SDS011;10959;51.328;7.322;2022-08-19T09:00:50;24.42;;;22.27;;
21593;SDS011;10959;51.328;7.322;2022-08-19T09:03:18;23.13;;;21.13;;
21593;SDS011;10959;51.328;7.322;2022-08-19T09:05:48;22.80;;;20.70;;
21593;SDS011;10959;51.328;7.322;2022-08-19T09:08:24;19.95;;;18.13;;
21593;SDS011;10959;51.328;7.322;2022-08-19T09:11:03;18.20;;;16.60;;
21593;SDS011;10959;51.328;7.322;2022-08-19T09:13:35;18.55;;;16.95;;
21593;SDS011;10959;51.328;7.322;2022-08-19T09:16:12;16.60;;;15.10;;
21593;SDS011;10959;51.328;7.322;2022-08-19T09:18:42;16.60;;;15.10;;
21593;SDS011;10959;51.328;7.322;2022-08-19T09:21:11;16.50;;;14.90;;
21593;SDS011;10959;51.328;7.322;2022-08-19T09:23:38;17.23;;;15.52;;
21593;SDS011;10959;51.328;7.322;2022-08-19T09:26:11;17.77;;;16.17;;
21593;SDS011;10959;51.328;7.322;2022-08-19T09:28:39;17.27;;;15.68;;
21593;SDS011;10959;51.328;7.322;2022-08-19T09:31:08;16.17;;;14.70;;
21593;SDS011;10959;51.328;7.322;2022-08-19T09:33:35;19.73;;;18.05;;
21593;SDS011;10959;51.328;7.322;2022-08-19T09:36:02;19.98;;;18.08;;
21593;SDS011;10959;51.328;7.322;2022-08-19T09:38:35;22.00;;;19.80;;
21593;SDS011;10959;51.328;7.322;2022-08-19T09:41:04;19.17;;;17.58;;
21593;SDS011;10959;51.328;7.322;2022-08-19T09:43:33;20.50;;;18.60;;
21593;SDS011;10959;51.328;7.322;2022-08-19T09:46:01;17.08;;;15.45;;
21593;SDS011;10959;51.328;7.322;2022-08-19T09:48:30;18.52;;;16.73;;
21593;SDS011;10959;51.328;7.322;2022-08-19T09:51:01;18.08;;;16.27;;
21593;SDS011;10959;51.328;7.322;2022-08-19T09:53:29;20.90;;;18.98;;
21593;SDS011;10959;51.328;7.322;2022-08-19T09:55:56;17.33;;;15.68;;
21593;SDS011;10959;51.328;7.322;2022-08-19T09:58:22;17.35;;;15.60;;
21593;SDS011;10959;51.328;7.322;2022-08-19T10:00:54;16.23;;;14.82;;
21593;SDS011;10959;51.328;7.322;2022-08-19T10:03:20;16.30;;;14.82;;
21593;SDS011;10959;51.328;7.322;2022-08-19T10:05:47;16.55;;;15.07;;
21593;SDS011;10959;51.328;7.322;2022-08-19T10:08:17;19.85;;;18.05;;
21593;SDS011;10959;51.328;7.322;2022-08-19T10:10:46;18.65;;;16.85;;
21593;SDS011;10959;51.328;7.322;2022-08-19T10:13:14;19.38;;;17.52;;
21593;SDS011;10959;51.328;7.322;2022-08-19T10:15:43;16.63;;;14.95;;
21593;SDS011;10959;51.328;7.322;2022-08-19T10:18:11;17.45;;;15.95;;
21593;SDS011;10959;51.328;7.322;2022-08-19T10:20:38;16.02;;;14.55;;
21593;SDS011;10959;51.328;7.322;2022-08-19T10:23:06;15.95;;;14.43;;
21593;SDS011;10959;51.328;7.322;2022-08-19T10:25:33;14.85;;;13.45;;
21593;SDS011;10959;51.328;7.322;2022-08-19T10:27:59;12.18;;;11.18;;
21593;SDS011;10959;51.328;7.322;2022-08-19T10:30:26;16.33;;;14.70;;
21593;SDS011;10959;51.328;7.322;2022-08-19T10:32:54;14.40;;;12.98;;
21593;SDS011;10959;51.328;7.322;2022-08-19T10:35:22;14.27;;;13.02;;
21593;SDS011;10959;51.328;7.322;2022-08-19T10:37:49;18.20;;;16.48;;
21593;SDS011;10959;51.328;7.322;2022-08-19T10:40:16;13.95;;;12.75;;
21593;SDS011;10959;51.328;7.322;2022-08-19T10:42:43;13.25;;;12.07;;
21593;SDS011;10959;51.328;7.322;2022-08-19T10:45:10;12.38;;;11.38;;
21593;SDS011;10959;51.328;7.322;2022-08-19T10:47:36;9.45;;;8.55;;
21593;SDS011;10959;51.328;7.322;2022-08-19T10:50:03;8.27;;;7.57;;
21593;SDS011;10959;51.328;7.322;2022-08-19T10:52:49;12.82;;;11.63;;
21593;SDS011;10959;51.328;7.322;2022-08-19T10:55:18;11.48;;;10.20;;
21593;SDS011;10959;51.328;7.322;2022-08-19T10:58:03;15.57;;;14.10;;
21593;SDS011;10959;51.328;7.322;2022-08-19T11:00:35;12.68;;;11.40;;
21593;SDS011;10959;51.328;7.322;2022-08-19T11:03:02;13.60;;;12.32;;
21593;SDS011;10959;51.328;7.322;2022-08-19T11:05:28;16.02;;;14.32;;
21593;SDS011;10959;51.328;7.322;2022-08-19T11:07:57;13.60;;;12.50;;
21593;SDS011;10959;51.328;7.322;2022-08-19T11:10:23;13.70;;;12.52;;
21593;SDS011;10959;51.328;7.322;2022-08-19T11:12:50;15.07;;;13.68;;
21593;SDS011;10959;51.328;7.322;2022-08-19T11:15:19;13.60;;;12.40;;
21593;SDS011;10959;51.328;7.322;2022-08-19T11:17:45;13.43;;;12.15;;
21593;SDS011;10959;51.328;7.322;2022-08-19T11:20:13;14.32;;;13.00;;
21593;SDS011;10959;51.328;7.322;2022-08-19T11:22:40;13.00;;;11.63;;
21593;SDS011;10959;51.328;7.322;2022-08-19T11:25:10;11.32;;;10.40;;
21593;SDS011;10959;51.328;7.322;2022-08-19T11:27:38;12.13;;;11.00;;
21593;SDS011;10959;51.328;7.322;2022-08-19T11:30:08;12.32;;;11.25;;
21593;SDS011;10959;51.328;7.322;2022-08-19T11:32:36;12.82;;;11.68;;
21593;SDS011;10959;51.328;7.322;2022-08-19T11:35:03;15.52;;;14.10;;
21593;SDS011;10959;51.328;7.322;2022-08-19T11:37:31;14.52;;;13.10;;
21593;SDS011;10959;51.328;7.322;2022-08-19T11:40:03;13.60;;;12.25;;
21593;SDS011;10959;51.328;7.322;2022-08-19T11:42:32;12.75;;;11.55;;
21593;SDS011;10959;51.328;7.322;2022-08-19T11:45:16;14.38;;;12.90;;
21593;SDS011;10959;51.328;7.322;2022-08-19T11:47:43;14.63;;;13.32;;
21593;SDS011;10959;51.328;7.322;2022-08-19T11:50:11;13.48;;;12.18;;
21593;SDS011;10959;51.328;7.322;2022-08-19T11:52:37;14.68;;;13.30;;
21593;SDS011;10959;51.328;7.322;2022-08-19T11:55:04;14.70;;;13.40;;
21593;SDS011;10959;51.328;7.322;2022-08-19T11:57:33;15.32;;;14.02;;
21593;SDS011;10959;51.328;7.322;2022-08-19T11:59:59;14.65;;;13.40;;
21593;SDS011;10959;51.328;7.322;2022-08-19T12:02:26;13.43;;;12.25;;
21593;SDS011;10959;51.328;7.322;2022-08-19T12:04:53;14.95;;;13.65;;
21593;SDS011;10959;51.328;7.322;2022-08-19T12:07:19;13.15;;;11.98;;
21593;SDS011;10959;51.328;7.322;2022-08-19T12:09:46;13.90;;;12.45;;
21593;SDS011;10959;51.328;7.322;2022-08-19T12:12:12;15.95;;;14.48;;
21593;SDS011;10959;51.328;7.322;2022-08-19T12:14:40;13.20;;;12.02;;
21593;SDS011;10959;51.328;7.322;2022-08-19T12:17:07;14.90;;;13.60;;
21593;SDS011;10959;51.328;7.322;2022-08-19T12:19:35;15.40;;;14.00;;
21593;SDS011;10959;51.328;7.322;2022-08-19T12:22:04;15.65;;;14.25;;
21593;SDS011;10959;51.328;7.322;2022-08-19T12:24:32;17.13;;;15.50;;
21593;SDS011;10959;51.328;7.322;2022-08-19T12:26:59;16.77;;;15.30;;
21593;SDS011;10959;51.328;7.322;2022-08-19T12:29:27;15.77;;;14.48;;
21593;SDS011;10959;51.328;7.322;2022-08-19T12:31:55;14.02;;;12.82;;
21593;SDS011;10959;51.328;7.322;2022-08-19T12:34:26;14.50;;;13.10;;
21593;SDS011;10959;51.328;7.322;2022-08-19T12:36:54;13.23;;;11.95;;
21593;SDS011;10959;51.328;7.322;2022-08-19T12:39:21;13.80;;;12.55;;
21593;SDS011;10959;51.328;7.322;2022-08-19T12:41:48;13.52;;;12.27;;
21593;SDS011;10959;51.328;7.322;2022-08-19T12:44:14;13.10;;;11.93;;
21593;SDS011;10959;51.328;7.322;2022-08-19T12:46:41;13.25;;;11.98;;
21593;SDS011;10959;51.328;7.322;2022-08-19T12:49:09;12.60;;;11.60;;
21593;SDS011;10959;51.328;7.322;2022-08-19T12:51:36;9.82;;;9.02;;
21593;SDS011;10959;51.328;7.322;2022-08-19T12:54:02;10.68;;;9.13;;
21593;SDS011;10959;51.328;7.322;2022-08-19T12:56:29;8.63;;;7.82;;
21593;SDS011;10959;51.328;7.322;2022-08-19T12:59:00;9.15;;;8.35;;
21593;SDS011;10959;51.328;7.322;2022-08-19T13:01:27;8.00;;;7.30;;
21593;SDS011;10959;51.328;7.322;2022-08-19T13:03:57;8.23;;;7.50;;
21593;SDS011;10959;51.328;7.322;2022-08-19T13:06:26;6.45;;;5.85;;
21593;SDS011;10959;51.328;7.322;2022-08-19T13:08:53;6.65;;;6.05;;
21593;SDS011;10959;51.328;7.322;2022-08-19T13:11:21;5.80;;;5.40;;
21593;SDS011;10959;51.328;7.322;2022-08-19T13:13:51;6.05;;;5.45;;
21593;SDS011;10959;51.328;7.322;2022-08-19T13:16:18;6.30;;;5.80;;
21593;SDS011;10959;51.328;7.322;2022-08-19T13:18:47;7.18;;;6.47;;
21593;SDS011;10959;51.328;7.322;2022-08-19T13:21:16;6.10;;;5.60;;
21593;SDS011;10959;51.328;7.322;2022-08-19T13:23:46;6.53;;;5.88;;
21593;SDS011;10959;51.328;7.322;2022-08-19T13:26:13;7.10;;;6.50;;
21593;SDS011;10959;51.328;7.322;2022-08-19T13:28:40;6.82;;;6.22;;
21593;SDS011;10959;51.328;7.322;2022-08-19T13:31:26;6.68;;;6.18;;
21593;SDS011;10959;51.328;7.322;2022-08-19T13:34:12;5.50;;;5.05;;
21593;SDS011;10959;51.328;7.322;2022-08-19T13:36:40;7.55;;;6.60;;
21593;SDS011;10959;51.328;7.322;2022-08-19T13:39:09;6.20;;;5.60;;
21593;SDS011;10959;51.328;7.322;2022-08-19T13:41:37;5.80;;;5.18;;
21593;SDS011;10959;51.328;7.322;2022-08-19T13:44:12;5.00;;;4.53;;
21593;SDS011;10959;51.328;7.322;2022-08-19T13:46:39;4.78;;;4.38;;
21593;SDS011;10959;51.328;7.322;2022-08-19T13:49:09;4.80;;;4.40;;
21593;SDS011;10959;51.328;7.322;2022-08-19T13:51:36;5.57;;;5.18;;
21593;SDS011;10959;51.328;7.322;2022-08-19T13:54:04;5.03;;;4.57;;
21593;SDS011;10959;51.328;7.322;2022-08-19T13:56:32;5.40;;;4.90;;
21593;SDS011;10959;51.328;7.322;2022-08-19T13:58:58;6.80;;;4.55;;
21593;SDS011;10959;51.328;7.322;2022-08-19T14:01:25;5.97;;;5.50;;
21593;SDS011;10959;51.328;7.322;2022-08-19T14:03:52;7.18;;;5.88;;
21593;SDS011;10959;51.328;7.322;2022-08-19T14:06:19;7.13;;;5.50;;
21593;SDS011;10959;51.328;7.322;2022-08-19T14:08:47;6.22;;;5.53;;
21593;SDS011;10959;51.328;7.322;2022-08-19T14:11:14;6.05;;;5.55;;
21593;SDS011;10959;51.328;7.322;2022-08-19T14:13:43;5.22;;;4.72;;
21593;SDS011;10959;51.328;7.322;2022-08-19T14:16:10;9.50;;;5.65;;
21593;SDS011;10959;51.328;7.322;2022-08-19T14:18:39;8.15;;;5.75;;
21593;SDS011;10959;51.328;7.322;2022-08-19T14:21:06;5.72;;;4.95;;
21593;SDS011;10959;51.328;7.322;2022-08-19T14:23:33;5.28;;;4.78;;
21593;SDS011;10959;51.328;7.322;2022-08-19T14:26:04;5.82;;;5.32;;
21593;SDS011;10959;51.328;7.322;2022-08-19T14:28:33;5.75;;;5.15;;
21593;SDS011;10959;51.328;7.322;2022-08-19T14:31:01;7.75;;;5.45;;
21593;SDS011;10959;51.328;7.322;2022-08-19T14:33:27;5.72;;;5.22;;